Terminal Aerodrome Forecast
Issued by NWS Twin Cities, MN

Home | Current Version | Previous Version | Graphics & Text | Print | Product List | Glossary On
Versions: 1 2 3 4 5 6 7 8 9 10 11 12 13 14 15 16 17 18 19
458
FTUS43 KMPX 281556 AAA
TAFEAU
TAF AMD
KEAU 281556Z 2816/2912 VRB04KT P6SM VCSH SCT012 BKN040 OVC080
      TEMPO 2816/2819 6SM -SHRA OVC035
     FM281900 19009KT P6SM VCSH SCT020 BKN050
      TEMPO 2823/2902 5SM -TSRA OVC030CB
     FM290800 21003KT 2SM BR SCT003 OVC012=

USA.gov is the U.S. government's official web portal to all federal, state and local government web resources and services.